Time;durP1;ratioP1;P1;durP2;ratioP2;P2;SDS_P1;SDS_P2;PMS_P1;PMS_P2;Temp;Humidity;BMP_temperature;BMP_pressure;BME280_temperature;BME280_humidity;BME280_pressure;Samples;Min_cycle;Max_cycle;Signal;HPM_P1;HPM_P2
2021/08/13 00:01:35;;;;;;;6.72;5.18;;;17.30;99.90;;;;;;2603243;54;20094;31
2021/08/13 00:04:06;;;;;;;9.65;6.40;;;17.30;99.90;;;;;;2603237;46;20026;31
2021/08/13 00:06:40;;;;;;;7.68;5.85;;;17.20;99.90;;;;;;2603435;46;20928;31
2021/08/13 00:09:10;;;;;;;10.37;6.17;;;17.20;99.90;;;;;;2603273;46;20026;31
2021/08/13 00:11:41;;;;;;;11.43;6.38;;;17.20;99.90;;;;;;2603423;46;20090;31
2021/08/13 00:14:12;;;;;;;9.00;6.17;;;17.10;99.90;;;;;;2603482;46;20053;31
2021/08/13 00:16:43;;;;;;;9.02;6.10;;;17.10;99.90;;;;;;2603468;46;20074;31
2021/08/13 00:19:16;;;;;;;11.60;6.22;;;17.10;99.90;;;;;;2603202;46;20038;31
2021/08/13 00:21:49;;;;;;;8.80;6.33;;;17.10;99.90;;;;;;2603376;46;20827;31
2021/08/13 00:24:19;;;;;;;9.00;6.45;;;17.10;99.90;;;;;;2603350;46;20270;31
2021/08/13 00:26:55;;;;;;;8.30;6.65;;;17.00;99.90;;;;;;2603277;46;20093;31
2021/08/13 00:29:26;;;;;;;10.35;6.72;;;17.00;99.90;;;;;;2603413;46;20855;31
2021/08/13 00:31:57;;;;;;;8.63;6.33;;;16.90;99.90;;;;;;2603214;54;20903;31
2021/08/13 00:34:28;;;;;;;7.95;6.30;;;16.90;99.90;;;;;;2701780;39;20620;31
2021/08/13 00:36:59;;;;;;;6.78;5.97;;;16.80;99.90;;;;;;2603074;46;20030;31
2021/08/13 00:39:30;;;;;;;8.25;5.75;;;16.80;99.90;;;;;;2603263;46;20053;31
2021/08/13 00:42:01;;;;;;;12.45;6.50;;;16.80;99.90;;;;;;2603522;46;20077;31
2021/08/13 00:44:33;;;;;;;10.18;6.63;;;16.70;99.90;;;;;;2603066;46;20085;31
2021/08/13 00:47:04;;;;;;;8.07;6.18;;;16.70;99.90;;;;;;2603549;46;20890;31
2021/08/13 00:49:53;;;;;;;7.35;6.50;;;16.60;99.90;;;;;;2603266;46;19941;31
2021/08/13 00:52:37;;;;;;;11.20;6.80;;;16.60;99.90;;;;;;2603662;46;20026;31
2021/08/13 00:55:10;;;;;;;10.23;6.88;;;16.50;99.90;;;;;;2603253;46;20026;31
2021/08/13 00:57:55;;;;;;;10.52;6.85;;;16.40;99.90;;;;;;2603274;46;20034;31
2021/08/13 01:00:38;;;;;;;10.20;7.10;;;16.40;99.90;;;;;;2603531;46;20907;31
2021/08/13 01:03:10;;;;;;;11.35;6.85;;;16.30;99.90;;;;;;2603173;46;20056;31
2021/08/13 01:05:42;;;;;;;9.32;6.53;;;16.30;99.90;;;;;;2674737;39;21247;31
2021/08/13 01:08:13;;;;;;;10.85;6.68;;;16.30;99.90;;;;;;2602911;46;20030;31
2021/08/13 01:10:56;;;;;;;8.65;6.00;;;16.30;99.90;;;;;;2603479;47;20106;31
2021/08/13 01:13:37;;;;;;;9.85;6.22;;;16.30;99.90;;;;;;2603153;54;20957;31
2021/08/13 01:16:09;;;;;;;9.43;6.25;;;16.30;99.90;;;;;;2603342;46;20030;31
2021/08/13 01:18:44;;;;;;;19.48;7.32;;;16.20;99.90;;;;;;2603149;46;20899;31
2021/08/13 01:21:18;;;;;;;25.00;7.00;;;16.20;99.90;;;;;;2602986;46;20149;31
2021/08/13 01:24:03;;;;;;;7.95;6.25;;;16.20;99.90;;;;;;2603105;46;20056;31
2021/08/13 01:26:40;;;;;;;7.05;5.75;;;16.20;99.90;;;;;;2603022;54;20034;31
2021/08/13 01:29:31;;;;;;;7.50;5.47;;;16.20;99.90;;;;;;2603220;46;20034;31
2021/08/13 01:32:12;;;;;;;9.57;6.50;;;16.10;99.90;;;;;;2603120;46;20900;31
2021/08/13 01:34:48;;;;;;;8.40;6.50;;;16.10;99.90;;;;;;2603217;46;20849;31
2021/08/13 01:37:20;;;;;;;8.15;5.80;;;16.10;99.90;;;;;;2603507;46;20094;31
2021/08/13 01:40:01;;;;;;;10.73;6.47;;;16.10;99.90;;;;;;2603095;46;20031;31
2021/08/13 01:42:33;;;;;;;9.13;6.75;;;16.10;99.90;;;;;;2602894;47;20073;31
2021/08/13 01:45:06;;;;;;;9.18;6.95;;;16.00;99.90;;;;;;2603051;46;20140;31
2021/08/13 01:47:42;;;;;;;8.95;7.10;;;16.00;99.90;;;;;;2603092;46;20034;31
2021/08/13 01:50:12;;;;;;;8.80;6.72;;;16.00;99.90;;;;;;2603006;46;20387;31
2021/08/13 01:52:45;;;;;;;10.45;7.20;;;16.00;99.90;;;;;;2603041;47;20038;31
2021/08/13 01:55:17;;;;;;;10.13;6.80;;;16.00;99.90;;;;;;2603321;47;20781;31
2021/08/13 01:57:47;;;;;;;9.63;7.75;;;16.00;99.90;;;;;;2603040;47;20902;31
2021/08/13 02:00:19;;;;;;;7.63;6.70;;;15.90;99.90;;;;;;2603338;47;20979;31
2021/08/13 02:02:53;;;;;;;10.13;7.45;;;15.90;99.90;;;;;;2602791;47;20936;31
2021/08/13 02:05:31;;;;;;;9.15;7.22;;;15.80;99.90;;;;;;2602917;47;20037;31
2021/08/13 02:08:06;;;;;;;9.20;6.10;;;15.80;99.90;;;;;;2602943;47;20026;31
2021/08/13 02:10:42;;;;;;;9.25;6.75;;;15.80;99.90;;;;;;2603085;47;20068;31
2021/08/13 02:13:14;;;;;;;7.37;6.43;;;15.70;99.90;;;;;;2603381;47;20797;31
2021/08/13 02:16:02;;;;;;;12.47;7.13;;;15.70;99.90;;;;;;2602879;47;20917;31
2021/08/13 02:18:34;;;;;;;9.65;6.38;;;15.70;99.90;;;;;;2602752;54;20094;31
2021/08/13 02:21:08;;;;;;;8.82;7.22;;;15.60;99.90;;;;;;2603072;47;20970;31
2021/08/13 02:23:39;;;;;;;10.07;7.32;;;15.60;99.90;;;;;;2603825;46;20769;31
2021/08/13 02:26:10;;;;;;;12.20;7.10;;;15.60;99.90;;;;;;2603721;46;20952;31
2021/08/13 02:28:47;;;;;;;11.03;8.87;;;15.60;99.90;;;;;;2603714;46;20951;31
2021/08/13 02:31:22;;;;;;;9.60;7.30;;;15.60;99.90;;;;;;2603984;46;20872;31
2021/08/13 02:33:53;;;;;;;10.07;7.32;;;15.50;99.90;;;;;;2603908;46;20956;31
2021/08/13 02:36:39;;;;;;;9.35;7.43;;;15.50;99.90;;;;;;2603677;46;20034;31
2021/08/13 02:39:26;;;;;;;10.80;7.78;;;15.50;99.90;;;;;;2603684;46;20975;31
2021/08/13 02:41:59;;;;;;;10.80;7.60;;;15.50;99.90;;;;;;2603530;46;19938;31
2021/08/13 02:44:34;;;;;;;12.70;9.13;;;15.50;99.90;;;;;;2603617;54;20837;31
2021/08/13 02:47:07;;;;;;;14.60;7.50;;;15.40;99.90;;;;;;2603909;46;20038;31
2021/08/13 02:49:46;;;;;;;10.73;8.20;;;15.40;99.90;;;;;;2603591;46;20084;31
2021/08/13 02:52:18;;;;;;;10.13;7.70;;;15.40;99.90;;;;;;2603490;54;20085;31
2021/08/13 02:54:48;;;;;;;8.60;7.03;;;15.40;99.90;;;;;;2603471;54;21018;31
2021/08/13 02:57:20;;;;;;;11.45;8.45;;;15.40;99.90;;;;;;2603931;46;20026;31
2021/08/13 02:59:51;;;;;;;10.80;9.02;;;15.50;99.90;;;;;;2603471;46;20838;31
2021/08/13 03:02:23;;;;;;;16.90;11.10;;;15.50;99.90;;;;;;2603092;46;20056;31
2021/08/13 03:04:55;;;;;;;15.43;10.15;;;15.60;99.90;;;;;;2603558;46;20026;31
2021/08/13 03:07:27;;;;;;;14.07;10.32;;;15.50;99.90;;;;;;2603704;46;20034;31
2021/08/13 03:09:57;;;;;;;13.65;10.57;;;15.50;99.90;;;;;;2603445;46;20046;31
2021/08/13 03:12:28;;;;;;;11.70;10.50;;;15.50;99.90;;;;;;2603848;46;20928;31
2021/08/13 03:15:03;;;;;;;11.38;10.18;;;15.60;99.90;;;;;;2603614;46;20042;31
2021/08/13 03:17:39;;;;;;;13.93;10.52;;;15.50;99.90;;;;;;2603922;46;20077;31
2021/08/13 03:20:10;;;;;;;11.05;9.95;;;15.50;99.90;;;;;;2603707;46;20030;31
2021/08/13 03:22:55;;;;;;;12.35;9.38;;;15.50;99.90;;;;;;2603461;46;20135;31
2021/08/13 03:25:26;;;;;;;10.95;8.75;;;15.50;99.90;;;;;;2603499;46;20038;31
2021/08/13 03:27:57;;;;;;;11.80;9.07;;;15.50;99.90;;;;;;2603779;46;20030;31
2021/08/13 03:30:28;;;;;;;11.07;9.00;;;15.50;99.90;;;;;;2603719;46;20030;31
2021/08/13 03:32:59;;;;;;;12.05;8.95;;;15.50;99.90;;;;;;2603351;46;20886;31
2021/08/13 03:35:30;;;;;;;9.52;7.72;;;15.50;99.90;;;;;;2603480;46;20058;31
2021/08/13 03:38:02;;;;;;;11.70;9.30;;;15.50;99.90;;;;;;2603361;54;20069;31
2021/08/13 03:40:33;;;;;;;11.20;8.88;;;15.60;99.90;;;;;;2603432;54;20034;31
2021/08/13 03:43:04;;;;;;;10.88;7.68;;;15.60;99.90;;;;;;2603300;46;20038;31
2021/08/13 03:45:36;;;;;;;13.60;9.10;;;15.50;99.90;;;;;;2603430;46;20920;31
2021/08/13 03:48:08;;;;;;;13.43;9.23;;;15.50;99.90;;;;;;2603481;46;19985;31
2021/08/13 03:50:39;;;;;;;12.13;8.02;;;15.50;99.90;;;;;;2603392;46;20846;31
2021/08/13 03:53:10;;;;;;;11.65;7.75;;;15.60;99.90;;;;;;2603689;46;20137;31
2021/08/13 03:55:42;;;;;;;12.10;8.37;;;15.60;99.90;;;;;;2603503;46;20086;31
2021/08/13 03:58:15;;;;;;;9.25;7.70;;;15.60;99.90;;;;;;2603727;46;20089;31
2021/08/13 04:00:45;;;;;;;11.00;7.17;;;15.60;99.90;;;;;;2603658;46;20809;31
2021/08/13 04:03:16;;;;;;;14.02;9.00;;;15.60;99.90;;;;;;2603349;46;21134;31
2021/08/13 04:05:47;;;;;;;10.60;7.60;;;15.70;99.90;;;;;;2603337;46;20042;31
2021/08/13 04:08:18;;;;;;;10.35;8.07;;;15.70;99.90;;;;;;2603274;54;20909;31
2021/08/13 04:10:49;;;;;;;12.80;8.55;;;15.80;99.90;;;;;;2603409;46;20793;31
2021/08/13 04:13:20;;;;;;;13.07;8.75;;;15.90;99.90;;;;;;2603357;46;21111;31
2021/08/13 04:16:00;;;;;;;14.70;8.23;;;15.90;99.90;;;;;;2603353;46;20726;31
2021/08/13 04:18:32;;;;;;;11.10;8.30;;;15.90;99.90;;;;;;2603355;46;20906;31
2021/08/13 04:21:04;;;;;;;10.95;7.78;;;16.00;99.90;;;;;;2603153;54;20049;31
2021/08/13 04:23:35;;;;;;;12.95;8.70;;;16.00;99.90;;;;;;2603295;46;20026;31
2021/08/13 04:26:06;;;;;;;14.20;9.20;;;16.00;99.90;;;;;;2603278;46;20125;31
2021/08/13 04:28:37;;;;;;;12.90;8.95;;;16.00;99.90;;;;;;2603251;46;20973;31
2021/08/13 04:31:08;;;;;;;13.55;8.63;;;16.20;99.90;;;;;;2603268;46;20832;31
2021/08/13 04:33:39;;;;;;;10.18;7.78;;;16.30;99.90;;;;;;2603212;54;20879;31
2021/08/13 04:36:18;;;;;;;12.63;7.50;;;16.50;99.90;;;;;;2603370;46;20834;31
2021/08/13 04:38:51;;;;;;;13.40;8.40;;;16.60;99.90;;;;;;2603370;46;20061;31
2021/08/13 04:41:23;;;;;;;13.07;9.02;;;16.70;99.90;;;;;;2602992;54;20049;31
2021/08/13 04:43:54;;;;;;;11.27;8.38;;;16.70;99.90;;;;;;2602875;46;20105;31
2021/08/13 04:46:25;;;;;;;10.57;8.52;;;16.70;99.90;;;;;;2603113;46;20095;31
2021/08/13 04:51:42;;;;;;;12.88;8.63;;;16.80;99.90;;;;;;2646288;53;21295;31
2021/08/13 04:54:13;;;;;;;10.57;8.27;;;17.10;99.90;;;;;;2607114;54;20038;31
2021/08/13 04:56:44;;;;;;;12.35;8.25;;;17.20;99.90;;;;;;2607706;46;20852;31
2021/08/13 04:59:16;;;;;;;18.55;9.68;;;17.30;99.90;;;;;;2607269;54;20111;31
2021/08/13 05:01:55;;;;;;;9.95;8.02;;;17.40;99.90;;;;;;2607448;46;20897;31
2021/08/13 05:04:26;;;;;;;12.63;7.75;;;17.60;99.90;;;;;;2607357;46;20034;31
2021/08/13 05:06:57;;;;;;;13.40;8.93;;;17.80;99.90;;;;;;2607186;54;20038;31
2021/08/13 05:09:28;;;;;;;14.10;7.55;;;18.00;99.90;;;;;;2607244;54;20026;31
2021/08/13 05:11:59;;;;;;;10.30;8.20;;;18.10;99.90;;;;;;2607688;46;20061;31
2021/08/13 05:14:30;;;;;;;10.80;7.83;;;18.20;99.90;;;;;;2607425;46;20026;31
2021/08/13 05:17:01;;;;;;;13.55;8.77;;;18.20;99.90;;;;;;2607230;46;20803;31
2021/08/13 05:19:32;;;;;;;11.30;7.82;;;18.40;99.90;;;;;;2607170;54;20089;31
2021/08/13 05:22:03;;;;;;;13.05;8.95;;;18.60;99.90;;;;;;2607582;46;20026;31
2021/08/13 05:24:34;;;;;;;13.40;8.10;;;18.90;99.90;;;;;;2607315;46;20092;31
2021/08/13 05:27:05;;;;;;;11.57;8.35;;;19.10;99.90;;;;;;2607558;46;20077;31
2021/08/13 05:29:36;;;;;;;14.55;8.68;;;19.10;99.90;;;;;;2607209;46;20906;31
2021/08/13 05:32:07;;;;;;;10.52;8.82;;;19.00;99.90;;;;;;2607109;46;20030;31
2021/08/13 05:34:38;;;;;;;15.30;9.00;;;18.90;99.90;;;;;;2607430;46;20030;31
2021/08/13 05:37:09;;;;;;;12.45;8.35;;;18.90;99.90;;;;;;2607180;46;20932;31
2021/08/13 05:39:44;;;;;;;13.20;9.63;;;18.80;99.90;;;;;;2607118;54;20038;31
2021/08/13 05:42:14;;;;;;;14.35;8.80;;;18.70;99.90;;;;;;2607599;46;20812;31
2021/08/13 05:44:45;;;;;;;16.35;9.85;;;18.70;99.90;;;;;;2607667;46;20932;31
2021/08/13 05:47:18;;;;;;;19.65;9.60;;;18.70;99.90;;;;;;2607167;46;20989;31
2021/08/13 05:49:49;;;;;;;17.48;8.98;;;18.70;99.90;;;;;;2607171;46;20053;31
2021/08/13 05:52:20;;;;;;;11.70;9.15;;;18.70;99.90;;;;;;2607548;46;20893;31
2021/08/13 05:54:51;;;;;;;15.18;8.65;;;18.80;99.90;;;;;;2607198;46;20038;31
2021/08/13 05:57:22;;;;;;;13.55;9.00;;;19.00;99.90;;;;;;2607390;46;20046;31
2021/08/13 05:59:54;;;;;;;11.82;8.40;;;19.10;99.90;;;;;;2607302;46;20061;31
2021/08/13 06:02:25;;;;;;;21.40;9.90;;;19.30;99.90;;;;;;2604466;46;20026;31
2021/08/13 06:04:57;;;;;;;39.97;10.82;;;19.50;99.90;;;;;;2603425;46;20061;31
2021/08/13 06:07:28;;;;;;;13.25;8.35;;;19.80;99.90;;;;;;2603763;46;20929;31
2021/08/13 06:09:59;;;;;;;11.47;7.93;;;20.00;99.90;;;;;;2603439;54;20030;31
2021/08/13 06:12:30;;;;;;;11.25;7.95;;;20.40;99.90;;;;;;2603445;46;20022;31
2021/08/13 06:15:01;;;;;;;13.88;8.55;;;20.70;99.90;;;;;;2603375;54;20061;31
2021/08/13 06:17:35;;;;;;;12.05;8.40;;;21.00;99.90;;;;;;2603409;54;20125;31
2021/08/13 06:20:10;;;;;;;14.20;8.40;;;21.20;99.90;;;;;;2603843;46;25050;31
2021/08/13 06:22:42;;;;;;;13.27;9.10;;;21.40;99.90;;;;;;2603412;46;20128;31
2021/08/13 06:25:13;;;;;;;13.55;9.15;;;21.70;99.90;;;;;;2602998;46;20897;31
2021/08/13 06:27:45;;;;;;;12.50;8.15;;;21.90;99.90;;;;;;2603513;46;20081;31
2021/08/13 06:30:18;;;;;;;41.17;9.50;;;22.10;99.90;;;;;;2603413;46;20774;31
2021/08/13 06:32:49;;;;;;;15.25;7.70;;;22.30;99.90;;;;;;2603480;54;20038;31
2021/08/13 06:35:20;;;;;;;15.18;7.47;;;22.50;99.90;;;;;;2603513;54;20033;31
2021/08/13 06:37:53;;;;;;;47.25;9.75;;;22.80;99.90;;;;;;2603341;46;20030;31
2021/08/13 06:40:26;;;;;;;15.35;7.80;;;23.10;99.90;;;;;;2602744;46;20026;31
2021/08/13 06:42:58;;;;;;;12.10;7.65;;;23.30;99.90;;;;;;2603410;46;20808;31
2021/08/13 06:45:32;;;;;;;14.43;8.00;;;23.50;99.90;;;;;;2603501;46;20089;31
2021/08/13 06:48:10;;;;;;;10.67;7.07;;;23.80;99.90;;;;;;2603533;46;20092;31
2021/08/13 06:50:41;;;;;;;10.60;7.30;;;24.00;99.90;;;;;;2603401;46;20049;31
2021/08/13 06:53:12;;;;;;;8.55;6.00;;;24.30;99.90;;;;;;2603436;46;20103;31
2021/08/13 06:55:46;;;;;;;12.35;6.30;;;24.40;99.90;;;;;;2603885;46;20090;31
2021/08/13 06:58:17;;;;;;;8.60;6.50;;;24.70;99.90;;;;;;2603449;46;20124;31
2021/08/13 07:00:49;;;;;;;13.95;8.55;;;24.80;99.90;;;;;;2603407;54;20117;31
2021/08/13 07:03:20;;;;;;;11.85;6.40;;;24.90;99.90;;;;;;2603546;46;20828;31
2021/08/13 07:05:52;;;;;;;14.03;7.03;;;25.10;99.90;;;;;;2603374;54;20036;31
2021/08/13 07:08:23;;;;;;;15.38;7.22;;;25.40;99.90;;;;;;2603365;54;20057;31
2021/08/13 07:11:04;;;;;;;8.23;6.15;;;25.60;99.90;;;;;;2603288;46;20778;31
2021/08/13 07:13:35;;;;;;;13.85;6.93;;;25.80;99.90;;;;;;2602386;46;20922;31
2021/08/13 07:16:06;;;;;;;10.63;6.10;;;26.00;99.90;;;;;;2602701;47;20850;31
2021/08/13 07:18:38;;;;;;;15.27;5.95;;;26.20;99.90;;;;;;2603451;46;20155;31
2021/08/13 07:21:21;;;;;;;148.70;15.97;;;26.40;99.90;;;;;;2603216;54;20049;31
2021/08/13 07:24:01;;;;;;;16.45;6.00;;;26.70;99.90;;;;;;2603241;46;20081;31
2021/08/13 07:26:31;;;;;;;12.52;5.75;;;26.90;99.90;;;;;;2603244;46;20858;31
2021/08/13 07:29:02;;;;;;;12.48;6.53;;;27.00;99.90;;;;;;2603198;46;20082;31
2021/08/13 07:31:33;;;;;;;13.68;5.65;;;27.20;99.90;;;;;;2603045;46;20849;31
2021/08/13 07:34:07;;;;;;;10.80;6.00;;;27.30;99.90;;;;;;2603108;54;20065;31
2021/08/13 07:36:42;;;;;;;10.90;6.10;;;27.50;99.90;;;;;;2603209;46;20053;31
2021/08/13 07:39:18;;;;;;;13.40;6.03;;;27.50;99.90;;;;;;2603148;46;20034;31
2021/08/13 07:41:50;;;;;;;13.00;6.43;;;27.70;99.90;;;;;;2603294;46;20102;31
2021/08/13 07:44:21;;;;;;;15.20;5.77;;;27.90;99.90;;;;;;2603044;46;20026;31
2021/08/13 07:47:12;;;;;;;8.38;5.43;;;28.00;99.90;;;;;;2603139;54;20802;31
2021/08/13 07:49:46;;;;;;;8.50;5.85;;;28.20;99.90;;;;;;2603133;46;20026;31
2021/08/13 07:52:19;;;;;;;7.90;5.63;;;28.40;99.90;;;;;;2603180;46;20031;31
2021/08/13 07:54:50;;;;;;;7.55;5.97;;;28.60;99.90;;;;;;2603198;54;20873;31
2021/08/13 07:57:21;;;;;;;14.95;5.90;;;28.80;99.90;;;;;;2603156;54;20026;31
2021/08/13 07:59:53;;;;;;;10.27;5.05;;;29.00;99.90;;;;;;2701679;39;21454;31
2021/08/13 08:02:25;;;;;;;11.07;5.55;;;29.00;99.90;;;;;;2603100;46;20858;31
2021/08/13 08:04:56;;;;;;;11.82;5.72;;;29.10;99.90;;;;;;2603111;46;20913;31
2021/08/13 08:07:28;;;;;;;12.75;6.00;;;29.20;99.90;;;;;;2603176;47;20057;31
2021/08/13 08:09:58;;;;;;;9.67;5.00;;;29.20;99.90;;;;;;2603090;46;20111;31
2021/08/13 08:12:29;;;;;;;10.60;4.95;;;29.40;99.90;;;;;;2701552;39;21431;31
2021/08/13 08:15:00;;;;;;;16.85;5.57;;;29.60;99.90;;;;;;2603288;46;20042;31
2021/08/13 08:17:31;;;;;;;10.75;5.40;;;29.70;99.90;;;;;;2603179;46;20026;31
2021/08/13 08:20:03;;;;;;;9.80;5.00;;;29.90;99.90;;;;;;2603072;54;20035;31
2021/08/13 08:22:33;;;;;;;13.05;5.72;;;30.00;99.90;;;;;;2603110;47;20795;31
2021/08/13 08:25:05;;;;;;;10.63;5.07;;;30.10;99.50;;;;;;2602861;54;20034;31
2021/08/13 08:27:36;;;;;;;12.00;4.75;;;30.30;99.10;;;;;;2603181;46;20807;31
2021/08/13 08:30:07;;;;;;;9.82;5.10;;;30.50;99.20;;;;;;2602992;47;20038;31
2021/08/13 08:32:37;;;;;;;10.85;4.90;;;30.60;98.90;;;;;;2603005;54;20057;31
2021/08/13 08:35:09;;;;;;;7.38;4.53;;;30.60;98.90;;;;;;2603008;46;20801;31
2021/08/13 08:37:56;;;;;;;8.63;4.88;;;30.80;99.00;;;;;;2603005;47;20888;31
2021/08/13 08:40:28;;;;;;;12.20;5.00;;;31.00;97.90;;;;;;2603057;47;20073;31
2021/08/13 08:43:02;;;;;;;8.57;4.75;;;31.10;97.50;;;;;;2602875;47;20038;31
2021/08/13 08:45:35;;;;;;;11.30;4.43;;;31.20;97.20;;;;;;2603011;54;21668;31
2021/08/13 08:48:10;;;;;;;15.25;5.03;;;31.30;97.20;;;;;;2603038;47;20190;31
2021/08/13 08:50:41;;;;;;;10.35;4.80;;;31.20;96.00;;;;;;2602900;47;20030;31
2021/08/13 08:53:21;;;;;;;7.50;3.95;;;31.40;95.70;;;;;;2602942;47;20052;31
2021/08/13 08:55:52;;;;;;;9.20;4.07;;;31.50;95.40;;;;;;2603076;47;20289;31
2021/08/13 08:58:23;;;;;;;24.77;5.03;;;31.60;94.10;;;;;;2602897;47;20026;31
2021/08/13 09:00:54;;;;;;;8.73;4.68;;;31.60;94.80;;;;;;2602851;47;20073;31
2021/08/13 09:03:26;;;;;;;13.60;5.03;;;31.70;94.60;;;;;;2602819;47;20061;31
2021/08/13 09:05:56;;;;;;;8.82;4.30;;;31.90;95.40;;;;;;2602923;47;20899;31
2021/08/13 09:08:28;;;;;;;8.30;3.90;;;32.00;94.60;;;;;;2701324;39;21738;31
2021/08/13 09:10:58;;;;;;;10.75;3.50;;;32.20;94.40;;;;;;2602799;54;20034;31
2021/08/13 09:13:29;;;;;;;6.00;3.55;;;32.40;93.20;;;;;;2602809;47;20027;31
2021/08/13 09:16:14;;;;;;;7.93;3.90;;;32.60;92.00;;;;;;2602926;47;20034;31
2021/08/13 09:18:55;;;;;;;7.73;3.90;;;32.70;91.80;;;;;;2602933;54;20841;31
2021/08/13 09:21:26;;;;;;;5.67;3.50;;;32.60;91.30;;;;;;2602925;47;20029;31
2021/08/13 09:24:01;;;;;;;5.25;3.58;;;32.70;90.90;;;;;;2603099;47;20875;31
2021/08/13 09:26:39;;;;;;;6.20;3.20;;;32.80;91.00;;;;;;2602841;47;21631;31
2021/08/13 09:29:11;;;;;;;5.35;3.15;;;32.80;90.50;;;;;;2602960;54;20037;31
2021/08/13 09:31:51;;;;;;;8.25;4.10;;;32.90;90.40;;;;;;2602745;47;20838;31
2021/08/13 09:34:40;;;;;;;13.57;3.80;;;33.00;91.00;;;;;;2602917;47;20172;31
2021/08/13 09:37:15;;;;;;;11.63;3.70;;;33.10;90.10;;;;;;2603286;47;20913;31
2021/08/13 09:39:45;;;;;;;4.93;3.40;;;33.10;88.70;;;;;;2604069;46;20904;31
2021/08/13 09:42:16;;;;;;;5.60;3.00;;;33.20;90.10;;;;;;2603629;46;20027;31
2021/08/13 09:44:59;;;;;;;6.37;3.13;;;33.30;89.70;;;;;;2603836;46;20093;31
2021/08/13 09:47:44;;;;;;;6.77;3.60;;;33.20;86.20;;;;;;2603834;46;20034;31
2021/08/13 09:50:18;;;;;;;7.65;3.90;;;33.20;85.80;;;;;;2603723;54;20038;31
2021/08/13 09:53:05;;;;;;;5.35;3.75;;;33.00;87.20;;;;;;2603681;46;20092;31
2021/08/13 09:55:35;;;;;;;7.65;3.20;;;33.00;86.80;;;;;;2603916;46;20798;31
2021/08/13 09:58:08;;;;;;;7.50;3.80;;;33.20;87.40;;;;;;2603759;46;20834;31
2021/08/13 10:00:43;;;;;;;5.82;3.45;;;33.20;86.10;;;;;;2603580;46;20022;31
2021/08/13 10:03:16;;;;;;;5.28;3.72;;;33.30;87.10;;;;;;2702204;39;20578;31
2021/08/13 10:06:01;;;;;;;6.80;3.45;;;33.30;86.00;;;;;;2603559;54;20908;31
2021/08/13 10:08:44;;;;;;;4.85;3.10;;;33.40;84.30;;;;;;2603601;46;21422;31
2021/08/13 10:11:15;;;;;;;5.55;3.70;;;33.50;84.80;;;;;;2603581;54;20038;31
2021/08/13 10:13:54;;;;;;;5.97;3.35;;;33.50;85.10;;;;;;2702014;39;20646;31
2021/08/13 10:16:28;;;;;;;7.15;3.35;;;33.50;84.10;;;;;;2603824;46;20621;31
2021/08/13 10:19:03;;;;;;;5.67;3.60;;;33.50;84.00;;;;;;2603557;46;20061;31
2021/08/13 10:21:35;;;;;;;6.30;3.00;;;33.40;84.20;;;;;;2603487;47;20818;31
2021/08/13 10:24:08;;;;;;;4.60;3.33;;;33.50;85.00;;;;;;2603508;54;20851;31
2021/08/13 10:26:40;;;;;;;7.53;3.13;;;33.60;83.00;;;;;;2603630;46;20026;31
2021/08/13 10:29:11;;;;;;;10.63;3.38;;;33.70;84.20;;;;;;2603590;46;20026;31
2021/08/13 10:31:43;;;;;;;6.82;3.35;;;33.70;84.10;;;;;;2603406;46;20048;31
2021/08/13 10:34:15;;;;;;;5.80;3.72;;;33.80;84.00;;;;;;2603630;46;20027;31
2021/08/13 10:36:46;;;;;;;21.75;4.20;;;33.80;83.80;;;;;;2603523;54;20801;31
2021/08/13 10:39:22;;;;;;;35.10;4.90;;;33.50;83.00;;;;;;2603509;46;20853;31
2021/08/13 10:41:54;;;;;;;9.20;3.55;;;33.50;84.00;;;;;;2603452;54;20026;31
2021/08/13 10:44:31;;;;;;;5.28;3.53;;;33.50;83.90;;;;;;2603582;46;20140;31
2021/08/13 10:47:09;;;;;;;7.15;4.10;;;33.50;82.90;;;;;;2603457;46;20026;31
2021/08/13 10:49:40;;;;;;;6.80;3.70;;;33.50;84.40;;;;;;2603419;54;20785;31
2021/08/13 10:52:11;;;;;;;8.38;3.75;;;33.60;83.70;;;;;;2603559;46;20101;31
2021/08/13 10:54:45;;;;;;;6.30;3.65;;;33.50;82.00;;;;;;2603541;46;20844;31
2021/08/13 10:57:47;;;;;;;5.28;3.47;;;33.40;84.50;;;;;;2603558;46;20031;31
2021/08/13 11:00:21;;;;;;;7.80;3.60;;;33.30;85.00;;;;;;2603551;46;20038;31
2021/08/13 11:03:17;;;;;;;6.65;3.60;;;33.40;84.40;;;;;;2603379;54;20273;31
2021/08/13 11:05:55;;;;;;;6.00;3.58;;;33.40;83.90;;;;;;2603366;54;20053;31
2021/08/13 11:08:40;;;;;;;6.68;3.85;;;33.40;84.90;;;;;;2603602;46;20892;31
2021/08/13 11:11:14;;;;;;;5.47;3.72;;;33.40;83.60;;;;;;2603561;46;20913;31
2021/08/13 11:13:47;;;;;;;6.00;3.90;;;33.40;84.10;;;;;;2603415;54;20026;31
2021/08/13 11:16:28;;;;;;;8.23;3.60;;;33.30;84.10;;;;;;2603229;46;20053;31
2021/08/13 11:19:12;;;;;;;9.52;3.90;;;33.30;84.70;;;;;;2603526;46;20026;31
2021/08/13 11:21:49;;;;;;;6.13;4.45;;;33.40;83.60;;;;;;2603309;54;20034;31
2021/08/13 11:24:23;;;;;;;4.72;3.85;;;33.40;83.90;;;;;;2603605;46;20163;31
2021/08/13 11:26:57;;;;;;;9.25;3.85;;;33.40;84.90;;;;;;2603535;46;20970;31
2021/08/13 11:29:37;;;;;;;6.43;3.83;;;33.50;82.80;;;;;;2603387;46;20034;31
2021/08/13 11:32:18;;;;;;;49.10;13.70;;;33.40;82.70;;;;;;2603237;54;20026;31
2021/08/13 11:34:51;;;;;;;14.90;5.05;;;33.40;81.10;;;;;;2603335;54;20033;31
2021/08/13 11:37:27;;;;;;;34.37;9.20;;;33.30;82.40;;;;;;2603406;46;20875;31
2021/08/13 11:40:22;;;;;;;27.70;8.60;;;33.20;82.40;;;;;;2603302;54;20089;31
2021/08/13 11:42:59;;;;;;;8.02;4.03;;;33.30;81.80;;;;;;2603438;46;20023;31
2021/08/13 11:45:44;;;;;;;13.13;4.07;;;33.20;83.10;;;;;;2654566;39;21056;31
2021/08/13 11:48:20;;;;;;;6.63;3.90;;;33.10;83.70;;;;;;2603355;46;20049;31
2021/08/13 11:50:50;;;;;;;6.90;3.80;;;33.10;82.80;;;;;;2602723;46;20026;31
2021/08/13 11:55:49;;;;;;;6.53;3.75;;;33.10;83.60;;;;;;2601611;54;20030;31
2021/08/13 12:10:51;;;;;;;5.18;3.63;;;33.00;81.30;;;;;;2601901;54;20030;31
2021/08/13 13:02:50;;;;;;;7.55;4.22;;;32.20;80.60;;;;;;2601511;54;20061;31
2021/08/13 13:07:57;;;;;;;6.50;4.30;;;32.00;81.10;;;;;;2601972;54;20034;31
2021/08/13 13:10:28;;;;;;;6.40;4.07;;;32.10;82.10;;;;;;2601609;54;20948;31
2021/08/13 13:18:04;;;;;;;6.80;4.20;;;32.10;81.10;;;;;;2602677;54;20038;31
2021/08/13 13:20:36;;;;;;;6.28;3.80;;;32.20;79.70;;;;;;2602595;54;20049;31
2021/08/13 13:23:14;;;;;;;5.00;4.15;;;32.20;81.10;;;;;;2603666;46;20817;31
2021/08/13 13:25:54;;;;;;;7.38;4.43;;;32.30;79.60;;;;;;2603707;46;20032;31
2021/08/13 13:28:45;;;;;;;8.40;4.70;;;32.20;78.80;;;;;;2603763;47;20122;31
2021/08/13 13:31:29;;;;;;;8.35;4.25;;;32.20;79.80;;;;;;2603676;46;20059;31
2021/08/13 13:34:22;;;;;;;5.90;4.15;;;32.20;81.70;;;;;;2603631;46;20026;31
2021/08/13 13:36:53;;;;;;;9.52;4.18;;;32.20;80.70;;;;;;2603626;46;20317;31
2021/08/13 13:39:30;;;;;;;10.63;6.20;;;32.20;81.50;;;;;;2603837;46;20094;31
2021/08/13 13:42:01;;;;;;;5.90;5.00;;;32.20;81.70;;;;;;2603755;46;20831;31
2021/08/13 13:44:31;;;;;;;7.75;4.68;;;32.20;81.30;;;;;;2603908;46;20032;31
2021/08/13 13:47:06;;;;;;;5.85;4.25;;;32.10;81.90;;;;;;2603874;46;20882;31
2021/08/13 13:49:37;;;;;;;6.95;4.07;;;32.20;82.10;;;;;;2603649;54;20052;31
2021/08/13 13:52:08;;;;;;;12.35;4.60;;;32.20;81.80;;;;;;2603569;46;20889;31
2021/08/13 13:54:40;;;;;;;5.40;4.20;;;32.20;82.70;;;;;;2603592;46;20727;31
2021/08/13 13:57:12;;;;;;;8.55;4.38;;;32.20;81.70;;;;;;2603885;46;20034;31
2021/08/13 13:59:43;;;;;;;32.83;5.47;;;32.10;82.30;;;;;;2603465;46;20030;31
2021/08/13 14:02:14;;;;;;;6.70;4.20;;;32.10;82.30;;;;;;2603614;54;20026;31
2021/08/13 14:04:45;;;;;;;8.77;4.43;;;32.00;81.40;;;;;;2603635;46;21725;31
2021/08/13 14:07:16;;;;;;;8.02;4.85;;;32.00;81.50;;;;;;2603583;54;20030;31
2021/08/13 14:09:47;;;;;;;7.15;4.45;;;31.90;82.50;;;;;;2702020;39;21655;31
2021/08/13 14:12:18;;;;;;;8.35;4.40;;;31.80;81.80;;;;;;2603783;46;19994;31
2021/08/13 14:14:49;;;;;;;7.75;4.93;;;31.80;80.50;;;;;;2603584;46;21678;31
2021/08/13 14:17:20;;;;;;;13.50;4.95;;;31.70;80.70;;;;;;2603461;46;20844;31
2021/08/13 14:19:51;;;;;;;5.70;4.50;;;31.80;81.30;;;;;;2603399;46;20030;31
2021/08/13 14:22:25;;;;;;;7.47;4.40;;;31.70;80.40;;;;;;2603359;46;20030;31
2021/08/13 14:24:55;;;;;;;6.70;4.57;;;31.70;81.30;;;;;;2603496;46;20037;31
2021/08/13 14:27:26;;;;;;;5.53;3.85;;;31.70;81.80;;;;;;2603517;46;20049;31
2021/08/13 14:29:59;;;;;;;6.25;4.35;;;31.70;81.60;;;;;;2603415;46;20091;31
2021/08/13 14:32:29;;;;;;;9.60;5.03;;;31.70;81.30;;;;;;2603492;46;20035;31
2021/08/13 14:35:01;;;;;;;6.85;4.60;;;31.70;82.40;;;;;;2702256;39;21670;31
2021/08/13 14:37:34;;;;;;;5.38;4.68;;;31.70;81.40;;;;;;2603707;46;20053;31
2021/08/13 14:40:08;;;;;;;5.70;4.35;;;31.70;80.90;;;;;;2701929;39;21627;31